Port-au-Prince, Haiti
Current Conditions -  °F | °C
As of 7:00 PM on Friday 24 Oct 2014 (Local Time) from MDBH Reporting Station
Scattered Clouds Scattered Clouds  
Wind Chill: 82°   Ceiling: Unl
Heat Index: 91°   Visibility: 6mi
Dew Point: 77°   Wind: 7mph
Humidity: 84%   Direction: 90°E
Pressure: 29.85"   Gusts: NA
Location:  18.54°N, 72.34°W
Report Text: MDBH 250000Z 09006KT 9999 FEW016CB FEW018 SCT300 28/25 Q1011 CB/SE
Loading
Personal Weather Stations






























Interactive Weather Map
Tropical Storm Tracking
New forecast layout! Learn more

10-Day Weather Forecast

Advertisements
Track Severe Weather on mobile